sensor_id;sensor_type;location;lat;lon;timestamp;P1;durP1;ratioP1;P2;durP2;ratioP2
14550;SDS011;7362;50.956;4.184;2022-09-21T00:01:45;8.50;;;5.18;;
14550;SDS011;7362;50.956;4.184;2022-09-21T00:04:11;10.20;;;5.93;;
14550;SDS011;7362;50.956;4.184;2022-09-21T00:06:37;7.40;;;4.80;;
14550;SDS011;7362;50.956;4.184;2022-09-21T00:09:03;9.73;;;5.43;;
14550;SDS011;7362;50.956;4.184;2022-09-21T00:11:31;10.55;;;5.53;;
14550;SDS011;7362;50.956;4.184;2022-09-21T00:14:09;9.90;;;5.83;;
14550;SDS011;7362;50.956;4.184;2022-09-21T00:16:41;10.55;;;5.97;;
14550;SDS011;7362;50.956;4.184;2022-09-21T00:19:07;7.63;;;5.78;;
14550;SDS011;7362;50.956;4.184;2022-09-21T00:21:35;9.43;;;5.97;;
14550;SDS011;7362;50.956;4.184;2022-09-21T00:24:03;8.70;;;5.57;;
14550;SDS011;7362;50.956;4.184;2022-09-21T00:26:31;9.88;;;5.72;;
14550;SDS011;7362;50.956;4.184;2022-09-21T00:28:59;10.35;;;6.57;;
14550;SDS011;7362;50.956;4.184;2022-09-21T00:31:28;9.20;;;5.53;;
14550;SDS011;7362;50.956;4.184;2022-09-21T00:33:57;10.18;;;6.22;;
14550;SDS011;7362;50.956;4.184;2022-09-21T00:36:29;12.57;;;6.03;;
14550;SDS011;7362;50.956;4.184;2022-09-21T00:38:56;7.45;;;5.47;;
14550;SDS011;7362;50.956;4.184;2022-09-21T00:41:25;9.93;;;6.20;;
14550;SDS011;7362;50.956;4.184;2022-09-21T00:47:02;7.85;;;5.45;;
14550;SDS011;7362;50.956;4.184;2022-09-21T00:49:36;8.95;;;5.60;;
14550;SDS011;7362;50.956;4.184;2022-09-21T00:52:04;11.30;;;5.43;;
14550;SDS011;7362;50.956;4.184;2022-09-21T00:54:40;8.93;;;6.13;;
14550;SDS011;7362;50.956;4.184;2022-09-21T00:57:11;7.50;;;4.63;;
14550;SDS011;7362;50.956;4.184;2022-09-21T00:59:40;7.63;;;5.47;;
14550;SDS011;7362;50.956;4.184;2022-09-21T01:02:09;10.35;;;5.63;;
14550;SDS011;7362;50.956;4.184;2022-09-21T01:04:36;8.52;;;5.50;;
14550;SDS011;7362;50.956;4.184;2022-09-21T01:07:05;10.37;;;5.53;;
14550;SDS011;7362;50.956;4.184;2022-09-21T01:09:37;10.32;;;5.63;;
14550;SDS011;7362;50.956;4.184;2022-09-21T01:12:17;10.13;;;5.60;;
14550;SDS011;7362;50.956;4.184;2022-09-21T01:14:56;10.48;;;6.03;;
14550;SDS011;7362;50.956;4.184;2022-09-21T01:22:56;8.55;;;5.80;;
14550;SDS011;7362;50.956;4.184;2022-09-21T01:28:15;8.52;;;5.88;;
14550;SDS011;7362;50.956;4.184;2022-09-21T01:30:59;8.27;;;6.35;;
14550;SDS011;7362;50.956;4.184;2022-09-21T01:33:33;10.45;;;5.82;;
14550;SDS011;7362;50.956;4.184;2022-09-21T01:36:05;8.50;;;5.23;;
14550;SDS011;7362;50.956;4.184;2022-09-21T01:38:53;9.77;;;5.93;;
14550;SDS011;7362;50.956;4.184;2022-09-21T01:41:36;13.20;;;5.43;;
14550;SDS011;7362;50.956;4.184;2022-09-21T01:44:09;8.10;;;5.88;;
14550;SDS011;7362;50.956;4.184;2022-09-21T01:46:40;12.00;;;5.05;;
14550;SDS011;7362;50.956;4.184;2022-09-21T01:49:09;10.43;;;6.07;;
14550;SDS011;7362;50.956;4.184;2022-09-21T01:51:40;9.40;;;6.07;;
14550;SDS011;7362;50.956;4.184;2022-09-21T01:54:14;7.87;;;5.10;;
14550;SDS011;7362;50.956;4.184;2022-09-21T01:57:37;9.73;;;5.93;;
14550;SDS011;7362;50.956;4.184;2022-09-21T02:02:35;8.70;;;6.10;;
14550;SDS011;7362;50.956;4.184;2022-09-21T02:05:06;15.90;;;9.67;;
14550;SDS011;7362;50.956;4.184;2022-09-21T02:10:17;10.57;;;5.93;;
14550;SDS011;7362;50.956;4.184;2022-09-21T02:13:06;8.43;;;5.57;;
14550;SDS011;7362;50.956;4.184;2022-09-21T02:15:41;7.80;;;5.65;;
14550;SDS011;7362;50.956;4.184;2022-09-21T02:18:32;12.97;;;5.27;;
14550;SDS011;7362;50.956;4.184;2022-09-21T02:21:07;8.53;;;5.63;;
14550;SDS011;7362;50.956;4.184;2022-09-21T02:26:53;10.10;;;5.00;;
14550;SDS011;7362;50.956;4.184;2022-09-21T02:29:36;9.53;;;5.33;;
14550;SDS011;7362;50.956;4.184;2022-09-21T02:41:18;8.13;;;5.27;;
14550;SDS011;7362;50.956;4.184;2022-09-21T02:46:52;8.10;;;5.67;;
14550;SDS011;7362;50.956;4.184;2022-09-21T02:52:33;8.97;;;5.53;;
14550;SDS011;7362;50.956;4.184;2022-09-21T02:55:02;8.17;;;5.57;;
14550;SDS011;7362;50.956;4.184;2022-09-21T02:57:32;9.80;;;5.23;;
14550;SDS011;7362;50.956;4.184;2022-09-21T03:00:02;8.57;;;5.40;;
14550;SDS011;7362;50.956;4.184;2022-09-21T03:05:13;7.25;;;5.70;;
14550;SDS011;7362;50.956;4.184;2022-09-21T03:13:30;7.33;;;5.40;;
14550;SDS011;7362;50.956;4.184;2022-09-21T03:16:00;6.77;;;4.90;;
14550;SDS011;7362;50.956;4.184;2022-09-21T03:18:28;10.27;;;5.87;;
14550;SDS011;7362;50.956;4.184;2022-09-21T03:20:56;8.50;;;5.17;;
14550;SDS011;7362;50.956;4.184;2022-09-21T03:23:26;8.83;;;5.07;;
14550;SDS011;7362;50.956;4.184;2022-09-21T03:25:54;7.43;;;5.60;;
14550;SDS011;7362;50.956;4.184;2022-09-21T03:28:25;10.30;;;5.00;;
14550;SDS011;7362;50.956;4.184;2022-09-21T03:30:55;7.72;;;4.93;;
14550;SDS011;7362;50.956;4.184;2022-09-21T03:33:22;8.52;;;5.38;;
14550;SDS011;7362;50.956;4.184;2022-09-21T03:35:49;7.67;;;4.93;;
14550;SDS011;7362;50.956;4.184;2022-09-21T03:38:16;11.33;;;5.50;;
14550;SDS011;7362;50.956;4.184;2022-09-21T03:40:46;10.27;;;5.67;;
14550;SDS011;7362;50.956;4.184;2022-09-21T03:43:13;8.87;;;5.20;;
14550;SDS011;7362;50.956;4.184;2022-09-21T03:45:40;7.80;;;5.10;;
14550;SDS011;7362;50.956;4.184;2022-09-21T03:48:08;8.97;;;5.40;;
14550;SDS011;7362;50.956;4.184;2022-09-21T03:50:40;8.10;;;4.83;;
14550;SDS011;7362;50.956;4.184;2022-09-21T03:53:12;7.27;;;4.43;;
14550;SDS011;7362;50.956;4.184;2022-09-21T03:55:58;9.43;;;5.40;;
14550;SDS011;7362;50.956;4.184;2022-09-21T03:58:27;9.13;;;5.23;;
14550;SDS011;7362;50.956;4.184;2022-09-21T04:00:53;14.07;;;5.57;;
14550;SDS011;7362;50.956;4.184;2022-09-21T04:03:25;9.13;;;4.73;;
14550;SDS011;7362;50.956;4.184;2022-09-21T04:05:53;9.00;;;5.40;;
14550;SDS011;7362;50.956;4.184;2022-09-21T04:08:22;10.63;;;6.83;;
14550;SDS011;7362;50.956;4.184;2022-09-21T04:10:49;7.93;;;5.07;;
14550;SDS011;7362;50.956;4.184;2022-09-21T04:13:18;9.67;;;5.40;;
14550;SDS011;7362;50.956;4.184;2022-09-21T04:15:44;8.43;;;5.50;;
14550;SDS011;7362;50.956;4.184;2022-09-21T04:18:10;8.23;;;4.73;;
14550;SDS011;7362;50.956;4.184;2022-09-21T04:20:37;6.57;;;4.87;;
14550;SDS011;7362;50.956;4.184;2022-09-21T04:23:05;7.70;;;5.07;;
14550;SDS011;7362;50.956;4.184;2022-09-21T04:25:31;9.40;;;6.37;;
14550;SDS011;7362;50.956;4.184;2022-09-21T04:27:58;12.23;;;5.80;;
14550;SDS011;7362;50.956;4.184;2022-09-21T04:30:25;8.13;;;5.37;;
14550;SDS011;7362;50.956;4.184;2022-09-21T04:32:53;6.23;;;4.80;;
14550;SDS011;7362;50.956;4.184;2022-09-21T04:35:19;10.47;;;4.53;;
14550;SDS011;7362;50.956;4.184;2022-09-21T04:37:45;9.67;;;4.73;;
14550;SDS011;7362;50.956;4.184;2022-09-21T04:40:12;8.37;;;5.60;;
14550;SDS011;7362;50.956;4.184;2022-09-21T04:42:39;8.57;;;5.83;;
14550;SDS011;7362;50.956;4.184;2022-09-21T04:45:05;8.00;;;5.37;;
14550;SDS011;7362;50.956;4.184;2022-09-21T04:47:33;8.00;;;4.97;;
14550;SDS011;7362;50.956;4.184;2022-09-21T04:49:58;7.60;;;5.37;;
14550;SDS011;7362;50.956;4.184;2022-09-21T04:52:24;10.00;;;5.93;;
14550;SDS011;7362;50.956;4.184;2022-09-21T04:54:50;10.17;;;6.00;;
14550;SDS011;7362;50.956;4.184;2022-09-21T04:57:23;9.83;;;6.30;;
14550;SDS011;7362;50.956;4.184;2022-09-21T04:59:50;9.47;;;5.83;;
14550;SDS011;7362;50.956;4.184;2022-09-21T05:02:16;8.87;;;5.90;;
14550;SDS011;7362;50.956;4.184;2022-09-21T05:04:44;10.77;;;5.97;;
14550;SDS011;7362;50.956;4.184;2022-09-21T05:07:10;7.43;;;4.53;;
14550;SDS011;7362;50.956;4.184;2022-09-21T05:09:36;7.40;;;5.00;;
14550;SDS011;7362;50.956;4.184;2022-09-21T05:12:20;13.07;;;6.90;;
14550;SDS011;7362;50.956;4.184;2022-09-21T05:17:51;12.00;;;5.90;;
14550;SDS011;7362;50.956;4.184;2022-09-21T05:23:09;9.57;;;5.77;;
14550;SDS011;7362;50.956;4.184;2022-09-21T05:25:37;7.97;;;5.17;;
14550;SDS011;7362;50.956;4.184;2022-09-21T05:28:03;14.17;;;6.23;;
14550;SDS011;7362;50.956;4.184;2022-09-21T05:30:29;10.83;;;5.87;;
14550;SDS011;7362;50.956;4.184;2022-09-21T05:38:38;8.50;;;5.70;;
14550;SDS011;7362;50.956;4.184;2022-09-21T05:41:04;10.80;;;6.13;;
14550;SDS011;7362;50.956;4.184;2022-09-21T05:43:30;11.60;;;6.47;;
14550;SDS011;7362;50.956;4.184;2022-09-21T05:46:01;11.90;;;6.00;;
14550;SDS011;7362;50.956;4.184;2022-09-21T05:48:36;13.33;;;6.03;;
14550;SDS011;7362;50.956;4.184;2022-09-21T06:07:33;11.00;;;6.47;;
14550;SDS011;7362;50.956;4.184;2022-09-21T06:10:16;13.13;;;7.07;;
14550;SDS011;7362;50.956;4.184;2022-09-21T06:12:45;16.17;;;7.63;;
14550;SDS011;7362;50.956;4.184;2022-09-21T06:15:15;8.40;;;6.23;;
14550;SDS011;7362;50.956;4.184;2022-09-21T06:17:44;10.97;;;6.43;;
14550;SDS011;7362;50.956;4.184;2022-09-21T06:28:58;18.13;;;7.60;;
14550;SDS011;7362;50.956;4.184;2022-09-21T06:44:33;20.90;;;8.07;;
14550;SDS011;7362;50.956;4.184;2022-09-21T06:50:22;12.30;;;7.60;;
14550;SDS011;7362;50.956;4.184;2022-09-21T06:52:50;14.13;;;7.40;;
14550;SDS011;7362;50.956;4.184;2022-09-21T06:58:40;16.93;;;9.90;;
14550;SDS011;7362;50.956;4.184;2022-09-21T07:01:06;13.63;;;8.27;;
14550;SDS011;7362;50.956;4.184;2022-09-21T07:03:36;18.65;;;8.95;;
14550;SDS011;7362;50.956;4.184;2022-09-21T07:06:04;14.70;;;8.97;;
14550;SDS011;7362;50.956;4.184;2022-09-21T07:08:30;14.85;;;8.35;;
14550;SDS011;7362;50.956;4.184;2022-09-21T07:10:57;14.27;;;8.77;;
14550;SDS011;7362;50.956;4.184;2022-09-21T07:13:24;17.70;;;8.13;;
14550;SDS011;7362;50.956;4.184;2022-09-21T07:15:56;15.23;;;8.40;;
14550;SDS011;7362;50.956;4.184;2022-09-21T07:18:22;15.63;;;8.93;;
14550;SDS011;7362;50.956;4.184;2022-09-21T07:20:48;13.82;;;7.80;;
14550;SDS011;7362;50.956;4.184;2022-09-21T07:23:15;17.52;;;8.32;;
14550;SDS011;7362;50.956;4.184;2022-09-21T07:25:43;16.27;;;7.18;;
14550;SDS011;7362;50.956;4.184;2022-09-21T07:31:48;14.63;;;8.02;;
14550;SDS011;7362;50.956;4.184;2022-09-21T07:36:47;13.25;;;8.70;;
14550;SDS011;7362;50.956;4.184;2022-09-21T07:39:15;10.20;;;8.35;;
14550;SDS011;7362;50.956;4.184;2022-09-21T07:41:41;13.25;;;8.02;;
14550;SDS011;7362;50.956;4.184;2022-09-21T07:44:09;13.10;;;8.15;;
14550;SDS011;7362;50.956;4.184;2022-09-21T07:46:38;20.92;;;8.45;;
14550;SDS011;7362;50.956;4.184;2022-09-21T07:49:10;15.27;;;9.05;;
14550;SDS011;7362;50.956;4.184;2022-09-21T07:51:39;18.60;;;9.48;;
14550;SDS011;7362;50.956;4.184;2022-09-21T07:54:09;15.38;;;9.15;;
14550;SDS011;7362;50.956;4.184;2022-09-21T07:56:37;16.98;;;8.35;;
14550;SDS011;7362;50.956;4.184;2022-09-21T07:59:03;10.73;;;8.27;;
14550;SDS011;7362;50.956;4.184;2022-09-21T08:01:34;15.77;;;8.50;;
14550;SDS011;7362;50.956;4.184;2022-09-21T08:04:06;12.07;;;8.75;;
14550;SDS011;7362;50.956;4.184;2022-09-21T08:06:34;15.63;;;10.25;;
14550;SDS011;7362;50.956;4.184;2022-09-21T08:09:04;13.70;;;9.75;;
14550;SDS011;7362;50.956;4.184;2022-09-21T08:11:30;17.17;;;9.73;;
14550;SDS011;7362;50.956;4.184;2022-09-21T08:13:59;14.98;;;9.65;;
14550;SDS011;7362;50.956;4.184;2022-09-21T08:16:29;19.58;;;10.00;;
14550;SDS011;7362;50.956;4.184;2022-09-21T08:19:00;11.80;;;9.77;;
14550;SDS011;7362;50.956;4.184;2022-09-21T08:21:31;14.57;;;8.23;;
14550;SDS011;7362;50.956;4.184;2022-09-21T08:24:02;13.57;;;8.55;;
14550;SDS011;7362;50.956;4.184;2022-09-21T08:26:41;12.52;;;7.85;;
14550;SDS011;7362;50.956;4.184;2022-09-21T08:29:07;14.00;;;8.55;;
14550;SDS011;7362;50.956;4.184;2022-09-21T08:31:33;13.38;;;7.80;;
14550;SDS011;7362;50.956;4.184;2022-09-21T08:34:00;10.85;;;8.25;;
14550;SDS011;7362;50.956;4.184;2022-09-21T08:36:26;15.30;;;8.52;;
14550;SDS011;7362;50.956;4.184;2022-09-21T08:38:52;11.20;;;8.80;;
14550;SDS011;7362;50.956;4.184;2022-09-21T08:41:34;11.55;;;7.78;;
14550;SDS011;7362;50.956;4.184;2022-09-21T08:44:24;9.90;;;6.60;;
14550;SDS011;7362;50.956;4.184;2022-09-21T08:47:03;9.63;;;7.25;;
14550;SDS011;7362;50.956;4.184;2022-09-21T08:49:35;8.65;;;5.93;;
14550;SDS011;7362;50.956;4.184;2022-09-21T08:52:10;13.10;;;6.35;;
14550;SDS011;7362;50.956;4.184;2022-09-21T08:57:30;8.07;;;5.32;;
14550;SDS011;7362;50.956;4.184;2022-09-21T08:59:58;9.32;;;5.65;;
14550;SDS011;7362;50.956;4.184;2022-09-21T09:22:16;9.52;;;5.35;;
14550;SDS011;7362;50.956;4.184;2022-09-21T09:24:50;10.25;;;4.57;;
14550;SDS011;7362;50.956;4.184;2022-09-21T09:27:18;9.13;;;5.18;;
14550;SDS011;7362;50.956;4.184;2022-09-21T09:35:49;6.82;;;1.92;;
14550;SDS011;7362;50.956;4.184;2022-09-21T09:52:42;3.15;;;1.80;;
14550;SDS011;7362;50.956;4.184;2022-09-21T09:58:19;9.13;;;2.25;;
14550;SDS011;7362;50.956;4.184;2022-09-21T10:00:52;3.45;;;1.80;;
14550;SDS011;7362;50.956;4.184;2022-09-21T10:03:24;3.15;;;1.50;;
14550;SDS011;7362;50.956;4.184;2022-09-21T10:05:51;4.30;;;1.27;;
14550;SDS011;7362;50.956;4.184;2022-09-21T10:11:17;7.88;;;1.67;;
14550;SDS011;7362;50.956;4.184;2022-09-21T10:13:46;3.38;;;1.30;;
14550;SDS011;7362;50.956;4.184;2022-09-21T10:18:46;4.55;;;1.23;;
14550;SDS011;7362;50.956;4.184;2022-09-21T10:23:47;4.20;;;1.50;;
14550;SDS011;7362;50.956;4.184;2022-09-21T10:26:29;3.65;;;1.30;;
14550;SDS011;7362;50.956;4.184;2022-09-21T10:28:59;3.63;;;1.55;;
14550;SDS011;7362;50.956;4.184;2022-09-21T10:31:55;4.07;;;1.10;;
14550;SDS011;7362;50.956;4.184;2022-09-21T10:34:30;3.33;;;0.80;;
14550;SDS011;7362;50.956;4.184;2022-09-21T10:36:59;4.72;;;0.98;;
14550;SDS011;7362;50.956;4.184;2022-09-21T10:39:31;3.05;;;1.55;;
14550;SDS011;7362;50.956;4.184;2022-09-21T10:42:03;19.05;;;11.45;;
14550;SDS011;7362;50.956;4.184;2022-09-21T10:44:38;2.83;;;1.08;;
14550;SDS011;7362;50.956;4.184;2022-09-21T10:47:48;1.77;;;0.90;;
14550;SDS011;7362;50.956;4.184;2022-09-21T10:52:59;2.83;;;1.08;;
14550;SDS011;7362;50.956;4.184;2022-09-21T10:56:00;2.42;;;1.08;;
14550;SDS011;7362;50.956;4.184;2022-09-21T11:01:53;1.48;;;0.82;;
14550;SDS011;7362;50.956;4.184;2022-09-21T11:07:21;2.58;;;1.42;;
14550;SDS011;7362;50.956;4.184;2022-09-21T11:15:54;4.20;;;1.20;;
14550;SDS011;7362;50.956;4.184;2022-09-21T11:18:56;3.03;;;1.25;;
14550;SDS011;7362;50.956;4.184;2022-09-21T11:26:59;1.67;;;1.00;;
14550;SDS011;7362;50.956;4.184;2022-09-21T11:38:38;4.03;;;1.60;;
14550;SDS011;7362;50.956;4.184;2022-09-21T11:47:16;2.97;;;0.85;;
14550;SDS011;7362;50.956;4.184;2022-09-21T11:56:08;2.78;;;1.10;;
14550;SDS011;7362;50.956;4.184;2022-09-21T12:04:34;2.20;;;1.00;;
14550;SDS011;7362;50.956;4.184;2022-09-21T12:07:15;4.15;;;1.08;;
14550;SDS011;7362;50.956;4.184;2022-09-21T12:15:20;2.15;;;0.80;;
14550;SDS011;7362;50.956;4.184;2022-09-21T12:23:26;2.28;;;0.70;;
14550;SDS011;7362;50.956;4.184;2022-09-21T12:26:02;3.10;;;1.05;;
14550;SDS011;7362;50.956;4.184;2022-09-21T12:28:41;1.48;;;0.80;;
14550;SDS011;7362;50.956;4.184;2022-09-21T12:31:17;2.15;;;0.80;;
14550;SDS011;7362;50.956;4.184;2022-09-21T12:33:47;3.22;;;0.90;;
14550;SDS011;7362;50.956;4.184;2022-09-21T12:39:32;4.50;;;1.30;;
14550;SDS011;7362;50.956;4.184;2022-09-21T12:42:25;2.08;;;0.90;;
14550;SDS011;7362;50.956;4.184;2022-09-21T12:45:05;1.67;;;0.85;;
14550;SDS011;7362;50.956;4.184;2022-09-21T12:47:59;3.63;;;1.05;;
14550;SDS011;7362;50.956;4.184;2022-09-21T12:50:43;1.70;;;0.45;;
14550;SDS011;7362;50.956;4.184;2022-09-21T12:53:18;2.22;;;0.93;;
14550;SDS011;7362;50.956;4.184;2022-09-21T13:09:43;3.70;;;1.15;;
14550;SDS011;7362;50.956;4.184;2022-09-21T13:12:15;5.88;;;1.13;;
14550;SDS011;7362;50.956;4.184;2022-09-21T13:14:49;3.45;;;1.00;;
14550;SDS011;7362;50.956;4.184;2022-09-21T13:17:24;2.85;;;0.88;;
14550;SDS011;7362;50.956;4.184;2022-09-21T13:20:06;2.47;;;0.90;;
14550;SDS011;7362;50.956;4.184;2022-09-21T13:25:21;2.60;;;1.15;;
14550;SDS011;7362;50.956;4.184;2022-09-21T13:30:30;2.47;;;1.00;;
14550;SDS011;7362;50.956;4.184;2022-09-21T13:54:27;2.17;;;1.00;;
14550;SDS011;7362;50.956;4.184;2022-09-21T13:57:14;3.58;;;1.38;;
14550;SDS011;7362;50.956;4.184;2022-09-21T14:02:37;3.15;;;1.25;;
14550;SDS011;7362;50.956;4.184;2022-09-21T14:10:49;13.40;;;12.02;;
14550;SDS011;7362;50.956;4.184;2022-09-21T14:13:27;2.15;;;0.88;;
14550;SDS011;7362;50.956;4.184;2022-09-21T14:15:53;5.05;;;1.25;;
14550;SDS011;7362;50.956;4.184;2022-09-21T14:18:39;3.50;;;1.15;;
14550;SDS011;7362;50.956;4.184;2022-09-21T14:24:07;1.83;;;0.90;;
14550;SDS011;7362;50.956;4.184;2022-09-21T14:26:52;3.65;;;1.38;;
14550;SDS011;7362;50.956;4.184;2022-09-21T14:29:43;4.65;;;1.60;;
14550;SDS011;7362;50.956;4.184;2022-09-21T14:32:21;2.28;;;1.23;;
14550;SDS011;7362;50.956;4.184;2022-09-21T14:35:23;2.08;;;1.30;;
14550;SDS011;7362;50.956;4.184;2022-09-21T14:37:48;5.07;;;0.98;;
14550;SDS011;7362;50.956;4.184;2022-09-21T14:40:26;2.28;;;1.35;;
14550;SDS011;7362;50.956;4.184;2022-09-21T14:42:57;2.70;;;1.15;;
14550;SDS011;7362;50.956;4.184;2022-09-21T14:45:49;2.53;;;0.80;;
14550;SDS011;7362;50.956;4.184;2022-09-21T14:48:37;4.50;;;1.40;;
14550;SDS011;7362;50.956;4.184;2022-09-21T14:56:54;2.38;;;0.98;;
14550;SDS011;7362;50.956;4.184;2022-09-21T15:02:25;2.35;;;0.80;;
14550;SDS011;7362;50.956;4.184;2022-09-21T15:04:55;3.25;;;1.05;;
14550;SDS011;7362;50.956;4.184;2022-09-21T15:10:23;2.95;;;1.23;;
14550;SDS011;7362;50.956;4.184;2022-09-21T15:13:12;2.28;;;0.93;;
14550;SDS011;7362;50.956;4.184;2022-09-21T15:18:46;2.83;;;1.23;;
14550;SDS011;7362;50.956;4.184;2022-09-21T15:21:19;5.80;;;1.45;;
14550;SDS011;7362;50.956;4.184;2022-09-21T15:23:48;3.05;;;0.93;;
14550;SDS011;7362;50.956;4.184;2022-09-21T15:26:19;4.20;;;1.55;;
14550;SDS011;7362;50.956;4.184;2022-09-21T15:28:58;6.15;;;1.55;;
14550;SDS011;7362;50.956;4.184;2022-09-21T15:31:31;3.65;;;1.08;;
14550;SDS011;7362;50.956;4.184;2022-09-21T15:33:59;3.25;;;1.50;;
14550;SDS011;7362;50.956;4.184;2022-09-21T15:36:28;3.58;;;1.17;;
14550;SDS011;7362;50.956;4.184;2022-09-21T15:39:01;2.30;;;1.38;;
14550;SDS011;7362;50.956;4.184;2022-09-21T15:46:47;6.15;;;2.45;;
14550;SDS011;7362;50.956;4.184;2022-09-21T15:49:16;2.58;;;1.10;;
14550;SDS011;7362;50.956;4.184;2022-09-21T15:51:52;4.85;;;1.38;;
14550;SDS011;7362;50.956;4.184;2022-09-21T15:54:32;4.15;;;1.02;;
14550;SDS011;7362;50.956;4.184;2022-09-21T15:57:02;2.97;;;1.05;;
14550;SDS011;7362;50.956;4.184;2022-09-21T15:59:33;2.33;;;1.13;;
14550;SDS011;7362;50.956;4.184;2022-09-21T16:02:00;2.15;;;1.02;;
14550;SDS011;7362;50.956;4.184;2022-09-21T16:04:36;2.03;;;1.02;;
14550;SDS011;7362;50.956;4.184;2022-09-21T16:07:29;2.13;;;1.00;;
14550;SDS011;7362;50.956;4.184;2022-09-21T16:09:59;2.63;;;0.90;;
14550;SDS011;7362;50.956;4.184;2022-09-21T16:14:51;3.20;;;1.20;;
14550;SDS011;7362;50.956;4.184;2022-09-21T16:22:39;4.80;;;1.60;;
14550;SDS011;7362;50.956;4.184;2022-09-21T16:27:58;2.97;;;0.80;;
14550;SDS011;7362;50.956;4.184;2022-09-21T16:30:45;3.47;;;1.25;;
14550;SDS011;7362;50.956;4.184;2022-09-21T16:36:50;2.80;;;1.00;;
14550;SDS011;7362;50.956;4.184;2022-09-21T16:39:07;4.32;;;1.30;;
14550;SDS011;7362;50.956;4.184;2022-09-21T16:41:44;2.03;;;0.93;;
14550;SDS011;7362;50.956;4.184;2022-09-21T16:44:13;1.73;;;1.25;;
14550;SDS011;7362;50.956;4.184;2022-09-21T16:46:49;5.80;;;1.55;;
14550;SDS011;7362;50.956;4.184;2022-09-21T16:49:27;4.35;;;1.20;;
14550;SDS011;7362;50.956;4.184;2022-09-21T16:51:56;8.82;;;1.98;;
14550;SDS011;7362;50.956;4.184;2022-09-21T16:54:23;4.85;;;1.65;;
14550;SDS011;7362;50.956;4.184;2022-09-21T16:56:51;3.28;;;1.27;;
14550;SDS011;7362;50.956;4.184;2022-09-21T16:59:19;5.38;;;1.27;;
14550;SDS011;7362;50.956;4.184;2022-09-21T17:01:50;2.63;;;1.10;;
14550;SDS011;7362;50.956;4.184;2022-09-21T17:04:18;3.47;;;1.10;;
14550;SDS011;7362;50.956;4.184;2022-09-21T17:06:46;3.22;;;1.00;;
14550;SDS011;7362;50.956;4.184;2022-09-21T17:11:41;3.17;;;1.20;;
14550;SDS011;7362;50.956;4.184;2022-09-21T17:14:09;3.17;;;1.10;;
14550;SDS011;7362;50.956;4.184;2022-09-21T17:16:42;5.18;;;0.95;;
14550;SDS011;7362;50.956;4.184;2022-09-21T17:19:20;3.55;;;1.25;;
14550;SDS011;7362;50.956;4.184;2022-09-21T17:21:46;3.80;;;1.30;;
14550;SDS011;7362;50.956;4.184;2022-09-21T17:24:12;5.68;;;1.35;;
14550;SDS011;7362;50.956;4.184;2022-09-21T17:26:40;3.80;;;1.90;;
14550;SDS011;7362;50.956;4.184;2022-09-21T17:29:16;2.70;;;1.33;;
14550;SDS011;7362;50.956;4.184;2022-09-21T17:31:47;4.28;;;1.30;;
14550;SDS011;7362;50.956;4.184;2022-09-21T17:34:18;2.95;;;1.48;;
14550;SDS011;7362;50.956;4.184;2022-09-21T17:36:45;4.40;;;1.52;;
14550;SDS011;7362;50.956;4.184;2022-09-21T17:39:10;4.40;;;1.60;;
14550;SDS011;7362;50.956;4.184;2022-09-21T17:46:58;3.65;;;1.70;;
14550;SDS011;7362;50.956;4.184;2022-09-21T17:49:29;6.45;;;1.85;;
14550;SDS011;7362;50.956;4.184;2022-09-21T17:51:57;3.58;;;1.52;;
14550;SDS011;7362;50.956;4.184;2022-09-21T17:54:43;4.90;;;1.67;;
14550;SDS011;7362;50.956;4.184;2022-09-21T18:00:03;5.38;;;2.13;;
14550;SDS011;7362;50.956;4.184;2022-09-21T18:02:37;4.47;;;2.05;;
14550;SDS011;7362;50.956;4.184;2022-09-21T18:05:08;5.43;;;2.08;;
14550;SDS011;7362;50.956;4.184;2022-09-21T18:07:48;4.40;;;2.05;;
14550;SDS011;7362;50.956;4.184;2022-09-21T18:10:15;3.92;;;1.83;;
14550;SDS011;7362;50.956;4.184;2022-09-21T18:18:45;5.95;;;2.40;;
14550;SDS011;7362;50.956;4.184;2022-09-21T18:21:24;6.35;;;2.47;;
14550;SDS011;7362;50.956;4.184;2022-09-21T18:26:52;6.07;;;2.20;;
14550;SDS011;7362;50.956;4.184;2022-09-21T18:29:26;6.57;;;3.47;;
14550;SDS011;7362;50.956;4.184;2022-09-21T18:38:19;6.18;;;4.35;;
14550;SDS011;7362;50.956;4.184;2022-09-21T18:43:48;7.97;;;4.13;;
14550;SDS011;7362;50.956;4.184;2022-09-21T18:49:04;10.70;;;3.28;;
14550;SDS011;7362;50.956;4.184;2022-09-21T18:54:34;4.85;;;2.53;;
14550;SDS011;7362;50.956;4.184;2022-09-21T18:57:10;5.40;;;3.28;;
14550;SDS011;7362;50.956;4.184;2022-09-21T18:59:37;6.75;;;3.10;;
14550;SDS011;7362;50.956;4.184;2022-09-21T19:02:14;7.32;;;3.33;;
14550;SDS011;7362;50.956;4.184;2022-09-21T19:04:44;8.27;;;2.70;;
14550;SDS011;7362;50.956;4.184;2022-09-21T19:07:59;4.95;;;2.40;;
14550;SDS011;7362;50.956;4.184;2022-09-21T19:10:05;6.00;;;2.95;;
14550;SDS011;7362;50.956;4.184;2022-09-21T19:16:10;6.60;;;2.45;;
14550;SDS011;7362;50.956;4.184;2022-09-21T19:19:13;4.50;;;2.00;;
14550;SDS011;7362;50.956;4.184;2022-09-21T19:22:05;3.88;;;1.77;;
14550;SDS011;7362;50.956;4.184;2022-09-21T19:27:42;8.52;;;2.65;;
14550;SDS011;7362;50.956;4.184;2022-09-21T19:30:17;5.50;;;3.10;;
14550;SDS011;7362;50.956;4.184;2022-09-21T19:32:45;4.97;;;2.47;;
14550;SDS011;7362;50.956;4.184;2022-09-21T19:37:52;5.28;;;2.70;;
14550;SDS011;7362;50.956;4.184;2022-09-21T19:40:24;6.20;;;3.00;;
14550;SDS011;7362;50.956;4.184;2022-09-21T19:43:11;9.32;;;4.25;;
14550;SDS011;7362;50.956;4.184;2022-09-21T19:46:02;5.07;;;3.13;;
14550;SDS011;7362;50.956;4.184;2022-09-21T19:48:44;4.90;;;3.28;;
14550;SDS011;7362;50.956;4.184;2022-09-21T19:51:16;5.38;;;2.92;;
14550;SDS011;7362;50.956;4.184;2022-09-21T19:53:51;7.60;;;3.33;;
14550;SDS011;7362;50.956;4.184;2022-09-21T19:56:49;7.30;;;3.08;;
14550;SDS011;7362;50.956;4.184;2022-09-21T19:59:43;5.78;;;2.88;;
14550;SDS011;7362;50.956;4.184;2022-09-21T20:02:13;7.15;;;2.85;;
14550;SDS011;7362;50.956;4.184;2022-09-21T20:08:06;7.25;;;3.40;;
14550;SDS011;7362;50.956;4.184;2022-09-21T20:14:18;6.63;;;2.97;;
14550;SDS011;7362;50.956;4.184;2022-09-21T20:16:58;9.10;;;3.45;;
14550;SDS011;7362;50.956;4.184;2022-09-21T20:22:18;5.97;;;2.58;;
14550;SDS011;7362;50.956;4.184;2022-09-21T20:25:09;6.97;;;3.10;;
14550;SDS011;7362;50.956;4.184;2022-09-21T20:27:56;6.20;;;3.15;;
14550;SDS011;7362;50.956;4.184;2022-09-21T20:30:27;7.95;;;3.05;;
14550;SDS011;7362;50.956;4.184;2022-09-21T20:32:59;6.60;;;3.63;;
14550;SDS011;7362;50.956;4.184;2022-09-21T20:35:33;8.23;;;4.05;;
14550;SDS011;7362;50.956;4.184;2022-09-21T20:38:00;8.27;;;4.05;;
14550;SDS011;7362;50.956;4.184;2022-09-21T20:45:29;5.90;;;3.88;;
14550;SDS011;7362;50.956;4.184;2022-09-21T20:47:56;10.93;;;4.43;;
14550;SDS011;7362;50.956;4.184;2022-09-21T20:50:37;6.85;;;3.47;;
14550;SDS011;7362;50.956;4.184;2022-09-21T20:53:11;6.82;;;4.00;;
14550;SDS011;7362;50.956;4.184;2022-09-21T20:55:39;7.95;;;3.70;;
14550;SDS011;7362;50.956;4.184;2022-09-21T20:58:08;6.00;;;3.65;;
14550;SDS011;7362;50.956;4.184;2022-09-21T21:00:36;13.30;;;5.00;;
14550;SDS011;7362;50.956;4.184;2022-09-21T21:03:02;22.98;;;13.65;;
14550;SDS011;7362;50.956;4.184;2022-09-21T21:05:29;9.18;;;5.25;;
14550;SDS011;7362;50.956;4.184;2022-09-21T21:07:55;10.77;;;6.57;;
14550;SDS011;7362;50.956;4.184;2022-09-21T21:10:28;9.48;;;5.70;;
14550;SDS011;7362;50.956;4.184;2022-09-21T21:12:57;7.95;;;4.63;;
14550;SDS011;7362;50.956;4.184;2022-09-21T21:18:19;9.07;;;4.32;;
14550;SDS011;7362;50.956;4.184;2022-09-21T21:27:05;10.15;;;6.00;;
14550;SDS011;7362;50.956;4.184;2022-09-21T21:29:40;13.32;;;7.50;;
14550;SDS011;7362;50.956;4.184;2022-09-21T21:37:54;8.88;;;5.20;;
14550;SDS011;7362;50.956;4.184;2022-09-21T21:43:23;10.32;;;4.55;;
14550;SDS011;7362;50.956;4.184;2022-09-21T21:45:54;8.23;;;4.65;;
14550;SDS011;7362;50.956;4.184;2022-09-21T21:50:59;9.85;;;5.00;;
14550;SDS011;7362;50.956;4.184;2022-09-21T21:53:26;6.78;;;4.20;;
14550;SDS011;7362;50.956;4.184;2022-09-21T21:58:40;8.43;;;5.05;;
14550;SDS011;7362;50.956;4.184;2022-09-21T22:01:13;6.45;;;5.13;;